createdAt,value
2022-10-19T20:46:15.889Z,5.50
2022-10-19T20:56:31.301Z,5.57
2022-10-19T20:58:34.552Z,5.50
2022-10-19T21:00:37.169Z,5.55
2022-10-19T21:02:41.159Z,5.15
2022-10-19T21:04:44.052Z,5.18
2022-10-19T21:06:48.989Z,5.13
2022-10-19T21:08:52.223Z,5.28
2022-10-19T21:10:54.908Z,5.32
2022-10-19T21:12:57.514Z,5.53
2022-10-19T21:15:00.100Z,5.22
2022-10-19T21:17:02.739Z,5.50
2022-10-19T21:19:09.313Z,4.75
2022-10-19T21:21:14.770Z,5.38
2022-10-19T21:23:17.357Z,4.82
2022-10-19T21:25:19.963Z,5.45
2022-10-19T21:27:22.646Z,4.90
2022-10-19T21:29:25.254Z,5.40
2022-10-19T21:31:28.678Z,5.15
2022-10-19T21:33:31.302Z,4.82
2022-10-19T21:35:36.880Z,5.10
2022-10-19T21:37:39.512Z,5.40
2022-10-19T21:39:42.688Z,5.60
2022-10-19T21:41:45.392Z,4.80
2022-10-19T21:43:48.285Z,4.95
2022-10-19T21:45:50.943Z,5.18
2022-10-19T21:47:53.556Z,6.05
2022-10-19T21:49:56.189Z,5.32
2022-10-19T21:52:04.374Z,5.32
2022-10-19T21:54:08.659Z,4.88
2022-10-19T21:56:11.327Z,5.32
2022-10-19T21:58:14.690Z,4.20
2022-10-19T22:00:17.302Z,4.68
2022-10-19T22:02:19.931Z,5.68
2022-10-19T22:04:22.924Z,5.60
2022-10-19T22:06:25.649Z,5.55
2022-10-19T22:08:29.693Z,5.50
2022-10-19T22:10:32.456Z,5.88
2022-10-19T22:12:35.287Z,5.68
2022-10-19T22:14:38.057Z,5.43
2022-10-19T22:16:41.577Z,6.28
2022-10-19T22:18:44.898Z,5.45
2022-10-19T22:20:47.557Z,6.70
2022-10-19T22:22:52.742Z,6.18
2022-10-19T22:24:58.880Z,5.25
2022-10-19T22:27:01.489Z,6.15
2022-10-19T22:29:05.944Z,6.53
2022-10-19T22:31:09.014Z,4.95
2022-10-19T22:33:11.668Z,6.50
2022-10-19T22:35:14.286Z,5.78
2022-10-19T22:37:16.937Z,5.65
2022-10-19T22:39:19.540Z,5.68
2022-10-19T22:41:23.556Z,5.78
2022-10-19T22:43:26.204Z,5.88
2022-10-19T22:45:28.848Z,7.07
2022-10-19T22:47:31.462Z,6.93
2022-10-19T22:49:34.075Z,6.15
2022-10-19T22:51:36.751Z,6.63
2022-10-19T22:53:39.370Z,6.40
2022-10-19T22:55:42.067Z,6.32
2022-10-19T22:57:46.072Z,5.70
2022-10-19T22:59:48.664Z,7.13
2022-10-19T23:01:51.355Z,6.43
2022-10-19T23:03:54.011Z,6.65
2022-10-19T23:05:56.685Z,7.35
2022-10-19T23:07:59.265Z,7.50
2022-10-19T23:10:02.407Z,7.43
2022-10-19T23:12:05.460Z,6.88
2022-10-19T23:14:09.612Z,6.55
2022-10-19T23:16:12.245Z,6.88
2022-10-19T23:18:15.013Z,7.22
2022-10-19T23:20:17.715Z,6.57
2022-10-19T23:22:20.995Z,7.28
2022-10-19T23:24:23.731Z,7.15
2022-10-19T23:26:32.372Z,6.55
2022-10-19T23:28:36.686Z,7.07
2022-10-19T23:30:40.621Z,7.88
2022-10-19T23:32:43.224Z,7.53
2022-10-19T23:34:48.291Z,7.25
2022-10-19T23:36:51.263Z,7.30
2022-10-19T23:38:55.592Z,7.70
2022-10-19T23:40:58.197Z,8.13
2022-10-19T23:43:00.772Z,7.15
2022-10-19T23:45:03.409Z,7.85
2022-10-19T23:47:07.407Z,7.68
2022-10-19T23:49:10.005Z,6.95
2022-10-19T23:51:15.180Z,6.90
2022-10-19T23:53:17.767Z,7.60
2022-10-19T23:55:20.372Z,7.53
2022-10-19T23:57:22.951Z,7.47
2022-10-19T23:59:25.605Z,7.28
